Time;durP1;ratioP1;P1;durP2;ratioP2;P2;SDS_P1;SDS_P2;PMS_P1;PMS_P2;Temp;Humidity;BMP_temperature;BMP_pressure;BME280_temperature;BME280_humidity;BME280_pressure;Samples;Min_cycle;Max_cycle;Signal;HPM_P1;HPM_P2
2022/03/23 00:01:09;;;;;;;22.67;12.80;;;5.00;99.90;;;;;;5094024;28;20173;-44
2022/03/23 00:03:35;;;;;;;18.50;12.37;;;4.90;99.90;;;;;;5093809;28;20170;-44
2022/03/23 00:06:01;;;;;;;19.70;11.93;;;4.80;99.90;;;;;;5093278;28;20232;-42
2022/03/23 00:08:27;;;;;;;19.87;12.27;;;4.80;99.90;;;;;;5094157;28;20521;-42
2022/03/23 00:10:52;;;;;;;22.13;12.23;;;4.70;99.90;;;;;;5093466;28;20261;-41
2022/03/23 00:13:18;;;;;;;18.33;12.10;;;4.70;99.90;;;;;;5093324;28;20210;-42
2022/03/23 00:15:44;;;;;;;19.30;12.40;;;4.60;99.90;;;;;;5093080;28;20290;-43
2022/03/23 00:18:10;;;;;;;20.13;13.30;;;4.60;99.90;;;;;;5093401;28;20202;-44
2022/03/23 00:20:35;;;;;;;21.10;14.10;;;4.60;99.90;;;;;;5093534;28;20676;-43
2022/03/23 00:23:01;;;;;;;21.10;13.90;;;4.50;99.90;;;;;;5093311;28;20651;-43
2022/03/23 00:25:26;;;;;;;23.30;14.07;;;4.50;99.90;;;;;;5093257;28;20217;-42
2022/03/23 00:27:52;;;;;;;22.27;14.20;;;4.40;99.90;;;;;;5096553;28;20172;-43
2022/03/23 00:30:18;;;;;;;24.20;13.93;;;4.40;99.90;;;;;;5097664;28;20175;-42
2022/03/23 00:32:43;;;;;;;21.47;14.37;;;4.30;99.90;;;;;;5097337;28;20165;-42
2022/03/23 00:35:09;;;;;;;26.27;15.50;;;4.30;99.90;;;;;;5097174;28;20202;-44
2022/03/23 00:37:36;;;;;;;25.40;14.67;;;4.30;99.90;;;;;;5097236;28;20206;-44
2022/03/23 00:40:02;;;;;;;21.93;14.80;;;4.30;99.90;;;;;;5097365;28;20202;-42
2022/03/23 00:42:28;;;;;;;24.67;15.20;;;4.30;99.90;;;;;;5097359;28;20192;-40
2022/03/23 00:44:53;;;;;;;25.57;14.57;;;4.30;99.90;;;;;;5097371;28;20345;-40
2022/03/23 00:47:19;;;;;;;23.30;14.17;;;4.30;99.90;;;;;;5078898;28;20177;-42
2022/03/23 00:49:45;;;;;;;22.60;14.27;;;4.20;99.90;;;;;;5096967;28;20217;-40
2022/03/23 00:52:11;;;;;;;22.60;13.80;;;4.10;99.90;;;;;;5095579;28;20175;-42
2022/03/23 00:54:37;;;;;;;28.03;14.27;;;4.10;99.90;;;;;;5097345;28;20264;-41
2022/03/23 00:57:04;;;;;;;23.23;14.03;;;4.00;99.90;;;;;;5096978;28;20210;-42
2022/03/23 00:59:30;;;;;;;24.37;14.27;;;4.00;99.90;;;;;;5095478;28;20593;-41
2022/03/23 01:01:56;;;;;;;23.97;13.90;;;4.00;99.90;;;;;;5096648;28;20176;-40
2022/03/23 01:04:23;;;;;;;22.80;14.23;;;3.90;99.90;;;;;;5096807;28;20185;-43
2022/03/23 01:06:49;;;;;;;24.47;14.17;;;3.80;99.90;;;;;;5096611;28;20189;-41
2022/03/23 01:09:15;;;;;;;21.40;13.70;;;3.80;99.90;;;;;;5096547;28;20168;-43
2022/03/23 01:11:41;;;;;;;27.60;14.93;;;3.80;99.90;;;;;;5096490;28;20250;-42
2022/03/23 01:14:07;;;;;;;26.43;13.57;;;3.80;99.90;;;;;;5096605;28;20177;-42
2022/03/23 01:16:33;;;;;;;24.77;13.93;;;3.70;99.90;;;;;;5096202;28;20302;-42
2022/03/23 01:19:00;;;;;;;22.03;13.53;;;3.70;99.90;;;;;;5096599;28;20269;-45
2022/03/23 01:21:25;;;;;;;19.43;12.83;;;3.60;99.90;;;;;;5096537;28;20185;-41
2022/03/23 01:23:51;;;;;;;28.87;14.10;;;3.60;99.90;;;;;;5096569;28;20238;-42
2022/03/23 01:26:17;;;;;;;24.40;14.60;;;3.50;99.90;;;;;;5096211;28;20214;-41
2022/03/23 01:28:42;;;;;;;22.77;14.20;;;3.50;99.90;;;;;;5096131;28;20179;-43
2022/03/23 01:31:08;;;;;;;25.20;14.73;;;3.40;99.90;;;;;;5096251;28;20171;-43
2022/03/23 01:33:34;;;;;;;26.23;15.40;;;3.50;99.90;;;;;;5096148;28;20175;-42
2022/03/23 01:35:59;;;;;;;27.13;15.20;;;3.40;99.90;;;;;;5096031;28;20195;-43
2022/03/23 01:38:25;;;;;;;27.63;15.77;;;3.40;99.90;;;;;;5095797;28;20612;-42
2022/03/23 01:40:51;;;;;;;26.07;15.37;;;3.40;99.90;;;;;;5095877;28;20182;-40
2022/03/23 01:43:16;;;;;;;24.67;15.33;;;3.40;99.90;;;;;;5096428;28;20171;-41
2022/03/23 01:45:42;;;;;;;27.83;14.87;;;3.50;99.90;;;;;;5095750;28;20216;-42
2022/03/23 01:48:08;;;;;;;23.80;14.57;;;3.50;99.90;;;;;;5095833;28;20171;-43
2022/03/23 01:50:33;;;;;;;25.50;13.17;;;3.50;99.90;;;;;;5095711;28;20224;-41
2022/03/23 01:52:59;;;;;;;26.23;15.00;;;3.50;99.90;;;;;;5095842;28;20183;-41
2022/03/23 01:55:25;;;;;;;26.67;14.43;;;3.40;99.90;;;;;;5096202;28;20195;-40
2022/03/23 01:57:52;;;;;;;26.60;13.70;;;3.40;99.90;;;;;;5094672;28;20188;-42
2022/03/23 02:00:19;;;;;;;33.20;15.63;;;3.30;99.90;;;;;;5095554;28;20217;-41
2022/03/23 02:02:45;;;;;;;27.30;14.40;;;3.30;99.90;;;;;;5095533;28;20167;-43
2022/03/23 02:05:12;;;;;;;24.33;14.20;;;3.30;99.90;;;;;;5095547;28;20289;-40
2022/03/23 02:07:39;;;;;;;31.63;14.73;;;3.30;99.90;;;;;;5095354;28;20175;-42
2022/03/23 02:10:06;;;;;;;31.87;15.40;;;3.30;99.90;;;;;;5095459;28;20556;-40
2022/03/23 02:12:32;;;;;;;30.33;15.33;;;3.30;99.90;;;;;;5095560;28;20183;-41
2022/03/23 02:14:59;;;;;;;21.23;14.40;;;3.20;99.90;;;;;;5095381;28;20292;-41
2022/03/23 02:17:27;;;;;;;25.70;14.03;;;3.30;99.90;;;;;;5095610;28;20163;-42
2022/03/23 02:19:52;;;;;;;22.87;13.33;;;3.20;99.90;;;;;;5095654;28;20176;-39
2022/03/23 02:22:18;;;;;;;22.00;13.10;;;3.10;99.90;;;;;;5095785;28;20183;-41
2022/03/23 02:24:48;;;;;;;27.37;14.13;;;3.10;99.90;;;;;;5095706;28;20675;-42
2022/03/23 02:27:14;;;;;;;23.80;14.03;;;3.10;99.90;;;;;;5094971;28;20690;-42
2022/03/23 02:29:40;;;;;;;24.90;13.40;;;3.00;99.90;;;;;;5095029;28;20175;-41
2022/03/23 02:32:06;;;;;;;23.20;13.27;;;3.00;99.90;;;;;;5095732;28;20179;-42
2022/03/23 02:34:31;;;;;;;22.50;13.97;;;2.90;99.90;;;;;;5094859;28;20190;-42
2022/03/23 02:36:58;;;;;;;24.90;12.97;;;2.90;99.90;;;;;;5094909;28;20226;-42
2022/03/23 02:39:27;;;;;;;26.00;12.93;;;2.80;99.90;;;;;;5093587;28;20167;-42
2022/03/23 02:41:54;;;;;;;22.17;13.63;;;2.80;99.90;;;;;;5095063;28;20246;-42
2022/03/23 02:44:20;;;;;;;21.13;13.80;;;2.70;99.90;;;;;;5094725;28;20601;-41
2022/03/23 02:46:46;;;;;;;20.50;12.97;;;2.70;99.90;;;;;;5094633;28;20252;-41
2022/03/23 02:49:18;;;;;;;23.27;13.47;;;2.60;99.90;;;;;;5094070;28;20183;-41
2022/03/23 02:51:44;;;;;;;22.47;13.03;;;2.60;99.90;;;;;;5094828;28;20608;-43
2022/03/23 03:02:37;;;;;;;26.33;13.27;;;2.50;99.90;;;;;;5094682;28;20175;-43
2022/03/23 03:05:04;;;;;;;21.17;13.37;;;2.40;99.90;;;;;;5094260;28;20202;-43
2022/03/23 03:08:44;;;;;;;19.50;13.17;;;2.40;99.90;;;;;;5094365;28;20220;-42
2022/03/23 03:10:16;;;;;;;21.67;13.83;;;2.40;99.90;;;;;;5094087;28;20556;-41
2022/03/23 03:12:42;;;;;;;22.27;14.17;;;2.40;99.90;;;;;;5094450;28;20175;-43
2022/03/23 03:15:10;;;;;;;21.03;14.30;;;2.40;99.90;;;;;;5094105;28;20215;-42
2022/03/23 03:17:36;;;;;;;25.50;15.10;;;2.40;99.90;;;;;;5092915;28;20625;-42
2022/03/23 03:20:04;;;;;;;22.77;13.30;;;2.30;99.90;;;;;;5094047;28;20185;-42
2022/03/23 03:22:34;;;;;;;23.00;13.47;;;2.30;99.90;;;;;;5094037;28;20178;-46
2022/03/23 03:25:00;;;;;;;23.07;13.10;;;2.30;99.90;;;;;;5094141;28;20710;-43
2022/03/23 03:27:26;;;;;;;21.87;13.83;;;2.30;99.90;;;;;;5092906;28;20179;-41
2022/03/23 03:29:52;;;;;;;19.63;13.57;;;2.30;99.90;;;;;;5094087;28;20654;-44
2022/03/23 03:32:17;;;;;;;21.53;12.90;;;2.30;99.90;;;;;;5092704;28;20179;-41
2022/03/23 03:34:43;;;;;;;25.40;13.53;;;2.20;99.90;;;;;;5093763;28;20655;-43
2022/03/23 03:37:09;;;;;;;23.83;13.97;;;2.20;99.90;;;;;;5093991;28;20645;-42
2022/03/23 03:39:34;;;;;;;21.80;12.87;;;2.20;99.90;;;;;;5094104;28;20648;-42
2022/03/23 03:42:01;;;;;;;26.73;13.83;;;2.20;99.90;;;;;;5093690;28;20601;-41
2022/03/23 03:44:26;;;;;;;23.80;12.47;;;2.20;99.90;;;;;;5093956;28;20186;-40
2022/03/23 03:46:52;;;;;;;19.07;13.10;;;2.20;99.90;;;;;;5092471;28;20190;-42
2022/03/23 03:49:18;;;;;;;22.13;13.30;;;2.10;99.90;;;;;;5093576;28;20681;-43
2022/03/23 03:51:44;;;;;;;21.60;14.10;;;2.10;99.90;;;;;;5093946;28;20181;-43
2022/03/23 03:54:09;;;;;;;26.40;14.80;;;2.10;99.90;;;;;;5093988;28;20231;-43
2022/03/23 03:56:35;;;;;;;26.00;14.37;;;2.00;99.90;;;;;;5093583;28;20203;-42
2022/03/23 03:59:01;;;;;;;24.97;14.10;;;2.00;99.90;;;;;;5094378;28;20189;-41
2022/03/23 04:01:26;;;;;;;23.47;14.47;;;1.90;99.90;;;;;;5093402;28;20551;-43
2022/03/23 04:03:52;;;;;;;22.00;13.50;;;1.90;99.90;;;;;;5094032;28;20573;-40
2022/03/23 04:06:17;;;;;;;22.57;13.50;;;1.80;99.90;;;;;;5094043;28;20583;-41
2022/03/23 04:08:43;;;;;;;25.57;13.37;;;1.90;99.90;;;;;;5093432;28;20182;-41
2022/03/23 04:11:09;;;;;;;22.47;13.77;;;1.80;99.90;;;;;;5092299;28;20171;-41
2022/03/23 04:13:34;;;;;;;19.30;12.20;;;1.80;99.90;;;;;;5093416;28;20166;-42
2022/03/23 04:16:00;;;;;;;22.90;14.17;;;1.80;99.90;;;;;;5093198;28;20275;-40
2022/03/23 04:18:26;;;;;;;23.90;13.93;;;1.70;99.90;;;;;;5093695;28;20178;-43
2022/03/23 04:20:52;;;;;;;22.17;13.30;;;1.70;99.90;;;;;;5092057;28;20188;-42
2022/03/23 04:23:18;;;;;;;22.83;13.93;;;1.70;99.90;;;;;;5093381;28;20181;-41
2022/03/23 04:25:43;;;;;;;27.07;14.77;;;1.70;99.90;;;;;;5093064;28;20287;-40
2022/03/23 04:28:09;;;;;;;19.67;13.53;;;1.70;99.90;;;;;;5091910;28;20398;-42
2022/03/23 04:30:34;;;;;;;24.87;15.30;;;1.70;99.90;;;;;;5093260;28;20592;-42
2022/03/23 04:33:02;;;;;;;27.87;16.77;;;1.70;99.90;;;;;;5093211;28;20171;-42
2022/03/23 04:35:28;;;;;;;25.90;16.53;;;1.70;99.90;;;;;;5093442;28;20229;-43
2022/03/23 04:37:53;;;;;;;30.10;16.67;;;1.80;99.90;;;;;;5093139;28;20540;-41
2022/03/23 04:40:19;;;;;;;24.60;15.37;;;1.70;99.90;;;;;;5093161;28;20177;-43
2022/03/23 04:42:46;;;;;;;24.33;14.37;;;1.70;99.90;;;;;;5093028;28;20235;-43
2022/03/23 04:45:13;;;;;;;22.17;13.70;;;1.70;99.90;;;;;;5092996;28;20217;-41
2022/03/23 04:47:39;;;;;;;25.50;14.70;;;1.60;99.90;;;;;;5093074;28;20648;-41
2022/03/23 04:50:08;;;;;;;23.83;14.10;;;1.60;99.90;;;;;;5091754;28;20230;-40
2022/03/23 04:52:34;;;;;;;22.53;13.17;;;1.60;99.90;;;;;;5093002;28;20209;-42
2022/03/23 04:55:00;;;;;;;19.83;12.77;;;1.60;99.90;;;;;;5093129;28;20244;-42
2022/03/23 04:57:27;;;;;;;24.50;12.63;;;1.50;99.90;;;;;;5092920;28;20551;-42
2022/03/23 04:59:58;;;;;;;21.47;12.97;;;1.50;99.90;;;;;;5093058;28;20178;-39
2022/03/23 05:02:25;;;;;;;27.60;14.30;;;1.50;99.90;;;;;;5093157;28;20171;-40
2022/03/23 05:04:50;;;;;;;23.87;13.63;;;1.40;99.90;;;;;;5093012;28;20201;-43
2022/03/23 05:07:16;;;;;;;26.13;14.77;;;1.40;99.90;;;;;;5092769;28;20173;-41
2022/03/23 05:09:41;;;;;;;23.50;13.20;;;1.40;99.90;;;;;;5092849;28;20177;-43
2022/03/23 05:12:07;;;;;;;26.93;14.87;;;1.40;99.90;;;;;;5093467;28;20174;-40
2022/03/23 05:14:34;;;;;;;23.03;14.67;;;1.40;99.90;;;;;;5096773;28;20177;-41
2022/03/23 05:17:00;;;;;;;25.10;12.97;;;1.40;99.90;;;;;;5096398;28;20189;-42
2022/03/23 05:19:26;;;;;;;19.83;13.87;;;1.40;99.90;;;;;;5096791;28;20257;-42
2022/03/23 05:21:51;;;;;;;30.43;14.27;;;1.40;99.90;;;;;;5096311;28;20220;-41
2022/03/23 05:24:17;;;;;;;20.50;13.53;;;1.30;99.90;;;;;;5096537;28;20169;-42
2022/03/23 05:26:43;;;;;;;22.27;13.77;;;1.30;99.90;;;;;;5096049;28;20219;-42
2022/03/23 05:29:09;;;;;;;23.10;13.80;;;1.30;99.90;;;;;;5096033;28;20181;-41
2022/03/23 05:31:35;;;;;;;21.30;13.90;;;1.30;99.90;;;;;;5096386;28;20169;-43
2022/03/23 05:34:01;;;;;;;23.23;13.53;;;1.30;99.90;;;;;;5096208;28;20224;-42
2022/03/23 05:36:26;;;;;;;21.63;12.57;;;1.30;99.90;;;;;;5096066;28;20193;-42
2022/03/23 05:38:52;;;;;;;26.10;14.03;;;1.30;99.90;;;;;;5096325;28;20189;-43
2022/03/23 05:41:17;;;;;;;20.67;13.47;;;1.30;99.90;;;;;;5096584;28;20197;-44
2022/03/23 05:43:43;;;;;;;20.90;13.53;;;1.30;99.90;;;;;;5096236;28;20638;-43
2022/03/23 05:46:08;;;;;;;23.40;13.30;;;1.20;99.90;;;;;;5096223;28;20216;-43
2022/03/23 05:48:34;;;;;;;23.90;12.53;;;1.30;99.90;;;;;;5095896;28;20178;-40
2022/03/23 05:51:00;;;;;;;19.40;12.47;;;1.20;99.90;;;;;;5094505;28;20636;-42
2022/03/23 05:53:25;;;;;;;24.97;13.87;;;1.20;99.90;;;;;;5096079;28;20193;-43
2022/03/23 05:55:51;;;;;;;21.53;12.53;;;1.20;99.90;;;;;;5095860;28;20570;-41
2022/03/23 05:58:17;;;;;;;24.50;13.73;;;1.20;99.90;;;;;;5095980;28;20248;-41
2022/03/23 06:00:43;;;;;;;25.07;13.97;;;1.20;99.90;;;;;;5095902;28;20198;-40
2022/03/23 06:03:09;;;;;;;23.03;13.80;;;1.20;99.90;;;;;;5095682;28;20964;-40
2022/03/23 06:05:35;;;;;;;24.53;14.67;;;1.20;99.90;;;;;;5096067;28;20300;-42
2022/03/23 06:08:01;;;;;;;22.63;13.07;;;1.30;99.90;;;;;;5096313;28;20192;-40
2022/03/23 06:10:26;;;;;;;31.20;14.73;;;1.30;99.90;;;;;;5095750;28;20173;-38
2022/03/23 06:12:52;;;;;;;29.47;15.00;;;1.30;99.90;;;;;;5095860;28;20191;-42
2022/03/23 06:15:18;;;;;;;22.73;14.37;;;1.40;99.90;;;;;;5095129;28;20292;-41
2022/03/23 06:17:43;;;;;;;30.00;14.57;;;1.50;99.90;;;;;;5095556;28;20170;-42
2022/03/23 06:20:09;;;;;;;25.53;14.57;;;1.50;99.90;;;;;;5096089;28;20511;-39
2022/03/23 06:22:35;;;;;;;27.00;14.63;;;1.50;99.90;;;;;;5095405;28;20185;-39
2022/03/23 06:25:01;;;;;;;29.33;14.33;;;1.60;99.90;;;;;;5095059;28;20216;-42
2022/03/23 06:27:27;;;;;;;29.30;15.70;;;1.60;99.90;;;;;;5095509;28;20205;-39
2022/03/23 06:29:53;;;;;;;27.70;15.73;;;1.70;99.90;;;;;;5095381;28;20253;-40
2022/03/23 06:32:19;;;;;;;28.67;14.60;;;1.80;99.90;;;;;;5093890;28;20230;-43
2022/03/23 06:34:44;;;;;;;31.70;15.57;;;1.90;99.90;;;;;;5093785;28;20269;-42
2022/03/23 06:37:10;;;;;;;28.70;15.47;;;2.00;99.90;;;;;;5095430;28;20184;-42
2022/03/23 06:39:35;;;;;;;33.40;16.77;;;2.20;99.90;;;;;;5095329;28;20186;-39
2022/03/23 06:42:01;;;;;;;37.10;17.13;;;2.30;99.90;;;;;;5093480;28;20195;-43
2022/03/23 06:44:27;;;;;;;33.07;17.53;;;2.50;99.90;;;;;;5094380;28;20177;-40
2022/03/23 06:46:52;;;;;;;41.93;16.43;;;2.70;99.90;;;;;;5095597;28;20221;-41
2022/03/23 06:49:18;;;;;;;29.30;18.03;;;2.90;99.90;;;;;;5093529;28;20177;-41
2022/03/23 06:51:44;;;;;;;38.83;19.00;;;3.00;99.90;;;;;;5095079;28;20176;-43
2022/03/23 06:54:10;;;;;;;32.10;18.33;;;3.30;99.90;;;;;;5095158;28;20173;-43
2022/03/23 06:56:35;;;;;;;32.83;18.27;;;3.40;99.90;;;;;;5095534;28;20233;-41
2022/03/23 06:59:03;;;;;;;28.97;17.03;;;3.60;99.90;;;;;;5100076;28;20174;-41
2022/03/23 07:01:29;;;;;;;29.00;17.40;;;3.80;99.90;;;;;;5097142;28;20193;-40
2022/03/23 07:03:55;;;;;;;35.80;19.80;;;4.00;99.90;;;;;;5097218;28;20184;-43
2022/03/23 07:06:21;;;;;;;34.83;18.33;;;4.30;99.90;;;;;;5095078;28;20296;-42
2022/03/23 07:11:30;;;;;;;34.07;19.07;;;4.70;99.90;;;;;;5095772;28;20169;-42
2022/03/23 07:13:57;;;;;;;30.77;19.37;;;4.90;99.90;;;;;;5094979;28;20171;-42
2022/03/23 07:16:22;;;;;;;35.90;19.07;;;5.10;99.90;;;;;;5094098;28;20214;-42
2022/03/23 07:18:49;;;;;;;33.03;16.87;;;5.30;99.90;;;;;;5094290;28;20194;-42
2022/03/23 07:21:14;;;;;;;29.77;17.73;;;5.50;99.90;;;;;;5094728;28;20188;-42
2022/03/23 07:23:40;;;;;;;29.53;18.10;;;5.70;99.90;;;;;;5094384;28;20175;-43
2022/03/23 07:26:06;;;;;;;30.97;17.63;;;5.90;99.90;;;;;;5093940;28;20214;-44
2022/03/23 07:28:32;;;;;;;33.90;17.37;;;6.10;99.90;;;;;;5093910;28;20201;-43
2022/03/23 07:31:01;;;;;;;30.83;18.30;;;6.20;99.90;;;;;;5094696;28;20647;-42
2022/03/23 07:33:31;;;;;;;36.27;18.30;;;6.40;99.90;;;;;;5098604;28;20185;-49
2022/03/23 07:35:57;;;;;;;31.13;16.10;;;6.60;99.90;;;;;;5100092;28;20202;-43
2022/03/23 07:38:23;;;;;;;31.70;18.00;;;6.80;99.90;;;;;;5100021;28;20175;-44
2022/03/23 07:40:48;;;;;;;29.47;16.37;;;6.90;99.90;;;;;;5099649;28;20320;-48
2022/03/23 07:43:14;;;;;;;33.03;16.73;;;7.10;99.90;;;;;;5098745;28;20171;-46
2022/03/23 07:45:40;;;;;;;36.83;17.87;;;7.20;99.90;;;;;;5101084;28;20214;-46
2022/03/23 07:48:05;;;;;;;31.37;16.60;;;7.40;99.90;;;;;;5099821;28;20179;-40
2022/03/23 07:50:31;;;;;;;33.67;17.37;;;7.50;99.90;;;;;;5102606;28;20717;-40
2022/03/23 07:52:57;;;;;;;36.07;19.17;;;7.70;99.90;;;;;;5092175;28;20175;-41
2022/03/23 07:55:22;;;;;;;35.73;18.53;;;7.90;99.90;;;;;;5093553;28;20241;-42
2022/03/23 07:57:48;;;;;;;26.87;17.37;;;8.00;99.90;;;;;;5093648;28;20201;-42
2022/03/23 08:00:15;;;;;;;34.47;18.63;;;8.20;99.90;;;;;;5093506;28;20644;-40
2022/03/23 08:02:41;;;;;;;31.80;18.53;;;8.30;99.90;;;;;;5093766;28;20183;-47
2022/03/23 08:05:08;;;;;;;32.50;18.67;;;8.50;99.90;;;;;;5093588;28;20216;-46
2022/03/23 08:07:33;;;;;;;34.30;19.73;;;8.70;99.90;;;;;;5093713;28;20219;-47
2022/03/23 08:09:59;;;;;;;36.00;18.57;;;8.80;99.90;;;;;;5093354;28;20719;-48
2022/03/23 08:12:25;;;;;;;47.07;19.17;;;8.90;99.90;;;;;;5093694;28;20258;-48
2022/03/23 08:14:50;;;;;;;29.23;17.97;;;9.10;99.90;;;;;;5091910;28;20555;-49
2022/03/23 08:17:16;;;;;;;32.83;19.23;;;9.30;99.90;;;;;;5093387;28;20647;-48
2022/03/23 08:19:42;;;;;;;40.70;17.97;;;9.40;99.90;;;;;;5093595;28;20589;-48
2022/03/23 08:22:09;;;;;;;25.63;17.03;;;9.40;99.90;;;;;;5093505;28;20203;-48
2022/03/23 08:24:34;;;;;;;28.57;17.17;;;9.50;99.90;;;;;;5093454;28;20223;-49
2022/03/23 08:27:00;;;;;;;28.33;16.77;;;9.60;99.90;;;;;;5093209;28;20667;-48
2022/03/23 08:29:26;;;;;;;32.63;18.73;;;9.70;99.90;;;;;;5093168;28;20232;-49
2022/03/23 08:31:52;;;;;;;26.30;17.13;;;9.90;99.90;;;;;;5093141;28;20182;-49
2022/03/23 08:34:18;;;;;;;23.53;17.13;;;10.00;99.90;;;;;;5093172;28;20258;-50
2022/03/23 08:36:44;;;;;;;30.23;16.33;;;10.30;99.90;;;;;;5093014;28;20191;-49
2022/03/23 08:39:10;;;;;;;24.80;17.17;;;10.50;99.90;;;;;;5093336;28;20540;-49
2022/03/23 08:41:35;;;;;;;36.17;17.63;;;10.70;99.90;;;;;;5093369;28;20171;-46
2022/03/23 08:44:01;;;;;;;23.43;16.03;;;10.70;99.90;;;;;;5093019;28;20179;-47
2022/03/23 08:46:27;;;;;;;32.37;16.10;;;10.80;99.90;;;;;;5092956;28;20621;-49
2022/03/23 08:48:53;;;;;;;24.27;16.30;;;11.00;99.90;;;;;;5097228;28;20267;-50
2022/03/23 08:51:19;;;;;;;24.43;15.23;;;11.30;99.90;;;;;;5096950;28;20185;-48
2022/03/23 08:53:45;;;;;;;23.57;16.27;;;11.50;99.90;;;;;;5097025;28;20175;-48
2022/03/23 08:56:11;;;;;;;27.33;16.53;;;11.80;99.90;;;;;;5096896;28;20361;-47
2022/03/23 08:58:38;;;;;;;26.33;17.33;;;11.90;99.90;;;;;;5097502;28;20182;-48
2022/03/23 09:01:04;;;;;;;23.73;16.47;;;12.10;99.90;;;;;;5097264;28;20186;-48
2022/03/23 09:03:30;;;;;;;25.97;16.67;;;12.20;99.90;;;;;;5097220;28;20181;-49
2022/03/23 09:05:56;;;;;;;29.50;16.83;;;12.40;99.90;;;;;;5096882;28;20218;-49
2022/03/23 09:08:21;;;;;;;28.83;17.03;;;12.60;99.90;;;;;;5096874;28;20181;-48
2022/03/23 09:10:47;;;;;;;26.47;15.63;;;12.70;99.90;;;;;;5097394;28;20602;-47
2022/03/23 09:13:12;;;;;;;24.60;15.90;;;12.80;99.90;;;;;;5097114;28;20174;-48
2022/03/23 09:15:38;;;;;;;26.73;15.93;;;13.00;99.90;;;;;;5096740;28;20221;-47
2022/03/23 09:18:04;;;;;;;26.10;16.00;;;13.10;99.90;;;;;;5096878;28;20171;-51
2022/03/23 09:20:30;;;;;;;22.67;15.57;;;13.20;99.90;;;;;;5096895;28;20634;-48
2022/03/23 09:22:57;;;;;;;23.37;15.20;;;13.30;99.90;;;;;;5096497;28;20210;-47
2022/03/23 09:25:23;;;;;;;21.30;15.17;;;13.50;99.90;;;;;;5096544;28;20242;-47
2022/03/23 09:27:49;;;;;;;26.80;15.53;;;13.70;99.90;;;;;;5096292;28;20171;-47
2022/03/23 09:30:15;;;;;;;26.73;15.77;;;13.80;99.90;;;;;;5096344;28;20170;-48
2022/03/23 09:32:43;;;;;;;21.10;15.50;;;13.90;99.90;;;;;;5096153;28;20640;-49
2022/03/23 09:35:09;;;;;;;27.23;15.73;;;13.90;99.90;;;;;;5096305;28;20686;-48
2022/03/23 09:37:50;;;;;;;27.13;15.70;;;14.00;99.90;;;;;;5096561;28;20175;-48
2022/03/23 09:40:17;;;;;;;31.77;16.30;;;14.10;99.90;;;;;;5095123;28;20227;-50
2022/03/23 09:42:43;;;;;;;28.83;15.77;;;14.30;99.90;;;;;;5096276;28;20179;-50
2022/03/23 09:45:12;;;;;;;26.47;16.83;;;14.30;99.90;;;;;;5105538;28;20207;-49
2022/03/23 09:47:38;;;;;;;25.73;15.57;;;14.30;99.90;;;;;;5100740;28;20245;-49
2022/03/23 09:50:04;;;;;;;21.90;15.77;;;14.30;99.90;;;;;;5096945;28;20205;-48
2022/03/23 09:52:30;;;;;;;23.07;15.80;;;14.30;99.90;;;;;;5096030;28;20174;-51
2022/03/23 09:54:55;;;;;;;25.33;15.77;;;14.50;99.90;;;;;;5095899;28;20521;-48
2022/03/23 09:57:21;;;;;;;24.43;16.83;;;14.70;99.90;;;;;;5095750;28;20285;-49
2022/03/23 09:59:46;;;;;;;24.00;15.43;;;14.80;99.90;;;;;;5095331;28;20229;-49
2022/03/23 10:02:58;;;;;;;22.13;15.07;;;14.80;99.90;;;;;;5095985;28;20599;-50
2022/03/23 10:06:09;;;;;;;25.60;15.87;;;14.70;99.90;;;;;;5095794;28;20206;-49
2022/03/23 10:08:59;;;;;;;22.87;15.97;;;14.70;99.90;;;;;;5095796;28;20191;-48
2022/03/23 10:11:47;;;;;;;22.97;15.60;;;14.80;99.90;;;;;;5095449;28;20159;-50
2022/03/23 10:14:31;;;;;;;24.30;14.77;;;14.80;99.90;;;;;;5095587;28;20175;-49
2022/03/23 10:17:30;;;;;;;26.83;16.07;;;14.80;99.90;;;;;;5095843;28;20202;-49
2022/03/23 10:19:56;;;;;;;25.17;15.60;;;14.80;99.90;;;;;;5095670;28;20175;-51
2022/03/23 10:22:26;;;;;;;26.70;16.07;;;14.90;99.90;;;;;;5095644;28;20543;-50
2022/03/23 10:24:52;;;;;;;23.60;16.00;;;15.00;99.90;;;;;;5095966;28;20167;-50
2022/03/23 10:27:20;;;;;;;23.47;15.67;;;15.00;99.90;;;;;;5096119;28;20179;-49
2022/03/23 10:29:48;;;;;;;26.40;15.03;;;14.90;99.90;;;;;;5095977;28;20171;-48
2022/03/23 10:32:17;;;;;;;22.33;15.87;;;15.00;99.90;;;;;;5095242;28;20598;-51
2022/03/23 10:34:54;;;;;;;24.63;15.37;;;15.10;99.90;;;;;;5095320;28;20640;-49
2022/03/23 10:37:38;;;;;;;24.20;16.37;;;15.20;99.90;;;;;;5095307;28;20251;-52
2022/03/23 10:40:07;;;;;;;25.37;17.17;;;15.30;99.90;;;;;;5094981;28;20210;-51
2022/03/23 10:42:36;;;;;;;26.90;17.40;;;15.40;99.90;;;;;;5095387;28;20631;-50
2022/03/23 10:45:20;;;;;;;25.87;16.37;;;15.50;99.90;;;;;;5095193;28;20574;-50
2022/03/23 10:47:47;;;;;;;23.43;15.87;;;15.60;99.90;;;;;;5095278;28;20160;-49
2022/03/23 10:50:23;;;;;;;21.07;15.93;;;15.70;99.90;;;;;;5094654;28;20224;-49
2022/03/23 10:52:56;;;;;;;25.30;16.67;;;15.80;99.90;;;;;;5094763;28;20161;-49
2022/03/23 10:55:25;;;;;;;21.80;15.73;;;16.00;99.90;;;;;;5094636;28;20191;-50
2022/03/23 10:57:51;;;;;;;27.33;16.70;;;16.20;99.90;;;;;;5094476;28;20188;-49
2022/03/23 11:00:25;;;;;;;28.50;17.47;;;16.50;99.90;;;;;;5094803;28;20178;-49
2022/03/23 11:02:51;;;;;;;21.70;15.67;;;16.80;99.90;;;;;;5094699;28;20507;-49
2022/03/23 11:05:38;;;;;;;29.37;17.40;;;17.00;99.90;;;;;;5094153;28;20247;-48
2022/03/23 11:08:15;;;;;;;27.50;16.20;;;17.30;99.90;;;;;;5093036;28;20198;-48
2022/03/23 11:16:23;;;;;;;23.03;16.67;;;17.90;99.90;;;;;;5094298;28;20225;-49
2022/03/23 11:18:48;;;;;;;24.93;17.37;;;18.00;99.90;;;;;;5094188;28;20159;-49
2022/03/23 11:21:14;;;;;;;26.87;16.73;;;18.00;99.90;;;;;;5094035;28;20186;-49
2022/03/23 11:23:40;;;;;;;25.43;17.63;;;18.10;99.90;;;;;;5095031;28;20224;-49
2022/03/23 11:26:10;;;;;;;26.30;17.50;;;17.90;99.90;;;;;;5093793;28;20203;-49
2022/03/23 11:28:41;;;;;;;27.63;17.83;;;18.00;99.90;;;;;;5093830;28;20181;-50
2022/03/23 11:31:09;;;;;;;24.43;16.67;;;18.10;99.90;;;;;;5094110;28;20173;-48
2022/03/23 11:33:37;;;;;;;25.73;16.97;;;18.10;99.90;;;;;;5094484;28;20533;-49
2022/03/23 11:36:05;;;;;;;27.43;18.27;;;18.20;99.90;;;;;;5094061;28;20204;-48
2022/03/23 11:38:33;;;;;;;28.37;17.77;;;18.40;99.90;;;;;;5094018;28;20189;-49
2022/03/23 11:40:59;;;;;;;23.27;17.87;;;18.50;99.90;;;;;;5094522;28;20207;-50
2022/03/23 11:43:29;;;;;;;23.43;17.50;;;18.50;99.90;;;;;;5093901;28;20178;-49
2022/03/23 11:45:56;;;;;;;25.10;17.70;;;18.60;99.90;;;;;;5093525;28;20194;-49
2022/03/23 11:48:22;;;;;;;24.33;18.17;;;18.60;99.90;;;;;;5093941;28;20215;-47
2022/03/23 11:51:11;;;;;;;22.97;17.27;;;18.70;99.90;;;;;;5093532;28;20724;-48
2022/03/23 11:53:59;;;;;;;24.70;17.27;;;18.70;99.90;;;;;;5093847;28;20513;-49
2022/03/23 11:56:41;;;;;;;27.67;18.13;;;18.90;99.90;;;;;;5093783;28;20595;-50
2022/03/23 11:59:23;;;;;;;22.97;16.73;;;19.00;99.90;;;;;;5092265;28;20186;-50
2022/03/23 12:01:50;;;;;;;25.17;17.10;;;19.10;99.90;;;;;;5093601;28;20210;-50
2022/03/23 12:04:21;;;;;;;23.33;15.97;;;19.30;99.90;;;;;;5093450;28;20229;-50
2022/03/23 12:07:00;;;;;;;22.83;16.23;;;19.50;99.90;;;;;;5093196;28;20206;-48
2022/03/23 12:09:34;;;;;;;21.30;15.70;;;19.60;99.90;;;;;;5093686;28;20155;-46
2022/03/23 12:12:02;;;;;;;21.83;16.40;;;19.70;99.90;;;;;;5093608;28;20178;-49
2022/03/23 12:14:35;;;;;;;21.40;15.80;;;19.80;99.90;;;;;;5093442;28;20179;-48
2022/03/23 12:17:09;;;;;;;20.03;16.40;;;20.00;99.90;;;;;;5092042;28;20206;-50
2022/03/23 12:20:05;;;;;;;19.03;15.77;;;20.10;99.90;;;;;;5093724;28;20170;-49
2022/03/23 12:22:33;;;;;;;21.23;15.03;;;20.20;99.90;;;;;;5096406;28;20633;-49
2022/03/23 12:25:26;;;;;;;21.30;15.33;;;20.30;99.90;;;;;;5097270;28;20253;-51
2022/03/23 12:27:56;;;;;;;27.63;15.60;;;20.40;99.90;;;;;;5097632;28;20178;-49
2022/03/23 12:30:25;;;;;;;26.40;16.83;;;20.60;99.90;;;;;;5097283;28;20174;-48
2022/03/23 12:32:50;;;;;;;23.27;16.37;;;20.60;97.80;;;;;;5097585;28;20220;-50
2022/03/23 12:35:28;;;;;;;21.73;16.40;;;20.50;99.10;;;;;;5097472;28;20222;-49
2022/03/23 12:38:02;;;;;;;20.57;14.83;;;20.50;99.90;;;;;;5095940;28;20266;-49
2022/03/23 12:40:39;;;;;;;19.33;14.97;;;20.40;96.20;;;;;;5097499;28;20171;-49
2022/03/23 12:43:05;;;;;;;21.90;15.37;;;20.20;90.00;;;;;;5097678;28;20605;-49
2022/03/23 12:45:39;;;;;;;17.10;14.73;;;20.00;88.70;;;;;;5097558;28;20205;-50
2022/03/23 12:57:49;;;;;;;21.40;15.17;;;20.00;91.20;;;;;;5097254;28;20237;-49
2022/03/23 12:59:22;;;;;;;22.67;15.03;;;20.30;88.90;;;;;;5096955;28;20190;-51
2022/03/23 13:01:54;;;;;;;18.97;14.97;;;20.30;92.40;;;;;;5097276;28;20173;-49